sensor_id;sensor_type;location;lat;lon;timestamp;P1;durP1;ratioP1;P2;durP2;ratioP2
41532;SDS011;27262;-35.248;149.138;2024-03-08T00:00:15;5.13;;;1.33;;
41532;SDS011;27262;-35.248;149.138;2024-03-08T00:02:49;4.40;;;1.80;;
41532;SDS011;27262;-35.248;149.138;2024-03-08T00:05:20;3.47;;;1.27;;
41532;SDS011;27262;-35.248;149.138;2024-03-08T00:07:52;8.43;;;1.73;;
41532;SDS011;27262;-35.248;149.138;2024-03-08T00:10:22;4.60;;;1.40;;
41532;SDS011;27262;-35.248;149.138;2024-03-08T00:12:54;5.03;;;1.35;;
41532;SDS011;27262;-35.248;149.138;2024-03-08T00:15:26;8.95;;;1.75;;
41532;SDS011;27262;-35.248;149.138;2024-03-08T00:17:58;4.25;;;1.20;;
41532;SDS011;27262;-35.248;149.138;2024-03-08T00:20:28;3.90;;;1.75;;
41532;SDS011;27262;-35.248;149.138;2024-03-08T00:22:59;4.85;;;1.40;;
41532;SDS011;27262;-35.248;149.138;2024-03-08T00:25:31;4.38;;;1.77;;
41532;SDS011;27262;-35.248;149.138;2024-03-08T00:28:02;2.47;;;1.10;;
41532;SDS011;27262;-35.248;149.138;2024-03-08T00:30:33;4.30;;;1.35;;
41532;SDS011;27262;-35.248;149.138;2024-03-08T00:33:03;4.53;;;1.27;;
41532;SDS011;27262;-35.248;149.138;2024-03-08T00:35:34;3.53;;;1.42;;
41532;SDS011;27262;-35.248;149.138;2024-03-08T00:38:04;3.40;;;1.52;;
41532;SDS011;27262;-35.248;149.138;2024-03-08T00:40:37;4.88;;;1.70;;
41532;SDS011;27262;-35.248;149.138;2024-03-08T00:43:09;4.50;;;1.33;;
41532;SDS011;27262;-35.248;149.138;2024-03-08T00:45:39;5.97;;;1.30;;
41532;SDS011;27262;-35.248;149.138;2024-03-08T00:48:12;6.03;;;1.30;;
41532;SDS011;27262;-35.248;149.138;2024-03-08T00:50:43;7.03;;;1.25;;
41532;SDS011;27262;-35.248;149.138;2024-03-08T00:53:16;8.45;;;1.60;;
41532;SDS011;27262;-35.248;149.138;2024-03-08T00:55:47;4.88;;;1.23;;
41532;SDS011;27262;-35.248;149.138;2024-03-08T00:58:17;5.07;;;1.50;;
41532;SDS011;27262;-35.248;149.138;2024-03-08T01:00:48;2.72;;;1.15;;
41532;SDS011;27262;-35.248;149.138;2024-03-08T01:03:20;4.57;;;1.30;;
41532;SDS011;27262;-35.248;149.138;2024-03-08T01:05:51;4.82;;;1.33;;
41532;SDS011;27262;-35.248;149.138;2024-03-08T01:08:22;2.78;;;0.90;;
41532;SDS011;27262;-35.248;149.138;2024-03-08T01:10:56;3.10;;;1.20;;
41532;SDS011;27262;-35.248;149.138;2024-03-08T01:13:27;3.00;;;1.17;;
41532;SDS011;27262;-35.248;149.138;2024-03-08T01:15:57;4.50;;;1.30;;
41532;SDS011;27262;-35.248;149.138;2024-03-08T01:18:27;5.47;;;1.30;;
41532;SDS011;27262;-35.248;149.138;2024-03-08T01:20:58;5.13;;;1.15;;
41532;SDS011;27262;-35.248;149.138;2024-03-08T01:23:29;4.03;;;1.60;;
41532;SDS011;27262;-35.248;149.138;2024-03-08T01:25:59;1.48;;;0.80;;
41532;SDS011;27262;-35.248;149.138;2024-03-08T01:28:30;4.50;;;1.27;;
41532;SDS011;27262;-35.248;149.138;2024-03-08T01:31:03;4.50;;;1.30;;
41532;SDS011;27262;-35.248;149.138;2024-03-08T01:33:34;4.75;;;1.30;;
41532;SDS011;27262;-35.248;149.138;2024-03-08T01:36:05;4.32;;;1.45;;
41532;SDS011;27262;-35.248;149.138;2024-03-08T01:38:35;2.58;;;0.98;;
41532;SDS011;27262;-35.248;149.138;2024-03-08T01:41:06;4.13;;;1.13;;
41532;SDS011;27262;-35.248;149.138;2024-03-08T01:43:37;5.18;;;1.13;;
41532;SDS011;27262;-35.248;149.138;2024-03-08T01:46:08;5.50;;;1.35;;
41532;SDS011;27262;-35.248;149.138;2024-03-08T01:48:41;4.00;;;1.05;;
41532;SDS011;27262;-35.248;149.138;2024-03-08T01:51:12;2.50;;;1.00;;
41532;SDS011;27262;-35.248;149.138;2024-03-08T01:53:43;5.38;;;1.30;;
41532;SDS011;27262;-35.248;149.138;2024-03-08T01:56:17;3.47;;;1.23;;
41532;SDS011;27262;-35.248;149.138;2024-03-08T01:58:47;4.28;;;1.00;;
41532;SDS011;27262;-35.248;149.138;2024-03-08T02:01:18;2.78;;;0.90;;
41532;SDS011;27262;-35.248;149.138;2024-03-08T02:03:49;3.22;;;1.35;;
41532;SDS011;27262;-35.248;149.138;2024-03-08T02:06:20;4.00;;;1.48;;
41532;SDS011;27262;-35.248;149.138;2024-03-08T02:08:50;3.50;;;1.10;;
41532;SDS011;27262;-35.248;149.138;2024-03-08T02:11:21;4.32;;;1.30;;
41532;SDS011;27262;-35.248;149.138;2024-03-08T02:13:52;6.93;;;1.40;;
41532;SDS011;27262;-35.248;149.138;2024-03-08T02:16:22;3.97;;;0.90;;
41532;SDS011;27262;-35.248;149.138;2024-03-08T02:18:53;5.85;;;1.10;;
41532;SDS011;27262;-35.248;149.138;2024-03-08T02:21:23;6.18;;;1.27;;
41532;SDS011;27262;-35.248;149.138;2024-03-08T02:23:54;6.03;;;1.17;;
41532;SDS011;27262;-35.248;149.138;2024-03-08T02:26:26;6.90;;;1.40;;
41532;SDS011;27262;-35.248;149.138;2024-03-08T02:28:57;3.28;;;1.00;;
41532;SDS011;27262;-35.248;149.138;2024-03-08T02:31:27;4.32;;;1.58;;
41532;SDS011;27262;-35.248;149.138;2024-03-08T02:33:58;6.82;;;1.30;;
41532;SDS011;27262;-35.248;149.138;2024-03-08T02:36:28;5.97;;;1.30;;
41532;SDS011;27262;-35.248;149.138;2024-03-08T02:39:03;9.05;;;1.08;;
41532;SDS011;27262;-35.248;149.138;2024-03-08T02:41:36;2.72;;;1.00;;
41532;SDS011;27262;-35.248;149.138;2024-03-08T02:44:06;3.92;;;1.15;;
41532;SDS011;27262;-35.248;149.138;2024-03-08T02:46:37;4.00;;;1.17;;
41532;SDS011;27262;-35.248;149.138;2024-03-08T02:49:08;6.15;;;1.42;;
41532;SDS011;27262;-35.248;149.138;2024-03-08T02:51:40;2.42;;;1.15;;
41532;SDS011;27262;-35.248;149.138;2024-03-08T02:54:10;3.05;;;0.93;;
41532;SDS011;27262;-35.248;149.138;2024-03-08T02:56:40;3.15;;;1.35;;
41532;SDS011;27262;-35.248;149.138;2024-03-08T02:59:10;4.13;;;1.00;;
41532;SDS011;27262;-35.248;149.138;2024-03-08T03:01:41;5.30;;;1.63;;
41532;SDS011;27262;-35.248;149.138;2024-03-08T03:04:12;4.97;;;1.23;;
41532;SDS011;27262;-35.248;149.138;2024-03-08T03:06:42;3.53;;;1.20;;
41532;SDS011;27262;-35.248;149.138;2024-03-08T03:09:13;6.22;;;1.25;;
41532;SDS011;27262;-35.248;149.138;2024-03-08T03:11:45;5.72;;;1.02;;
41532;SDS011;27262;-35.248;149.138;2024-03-08T03:14:16;4.57;;;1.60;;
41532;SDS011;27262;-35.248;149.138;2024-03-08T03:16:46;3.30;;;1.17;;
41532;SDS011;27262;-35.248;149.138;2024-03-08T03:19:16;4.25;;;0.90;;
41532;SDS011;27262;-35.248;149.138;2024-03-08T03:21:47;3.85;;;1.13;;
41532;SDS011;27262;-35.248;149.138;2024-03-08T03:24:17;3.08;;;1.00;;
41532;SDS011;27262;-35.248;149.138;2024-03-08T03:26:49;2.50;;;1.15;;
41532;SDS011;27262;-35.248;149.138;2024-03-08T03:29:20;3.42;;;0.88;;
41532;SDS011;27262;-35.248;149.138;2024-03-08T03:31:50;4.97;;;1.20;;
41532;SDS011;27262;-35.248;149.138;2024-03-08T03:34:21;3.30;;;0.95;;
41532;SDS011;27262;-35.248;149.138;2024-03-08T03:36:51;3.03;;;0.90;;
41532;SDS011;27262;-35.248;149.138;2024-03-08T03:39:24;1.45;;;0.82;;
41532;SDS011;27262;-35.248;149.138;2024-03-08T03:41:55;4.45;;;0.93;;
41532;SDS011;27262;-35.248;149.138;2024-03-08T03:44:25;4.40;;;1.10;;
41532;SDS011;27262;-35.248;149.138;2024-03-08T03:46:56;2.53;;;1.17;;
41532;SDS011;27262;-35.248;149.138;2024-03-08T03:49:26;3.88;;;1.35;;
41532;SDS011;27262;-35.248;149.138;2024-03-08T03:51:57;3.85;;;1.10;;
41532;SDS011;27262;-35.248;149.138;2024-03-08T03:54:28;4.20;;;1.17;;
41532;SDS011;27262;-35.248;149.138;2024-03-08T03:56:59;3.75;;;1.00;;
41532;SDS011;27262;-35.248;149.138;2024-03-08T03:59:31;4.50;;;1.50;;
41532;SDS011;27262;-35.248;149.138;2024-03-08T04:02:01;3.08;;;1.05;;
41532;SDS011;27262;-35.248;149.138;2024-03-08T04:04:32;2.28;;;0.75;;
41532;SDS011;27262;-35.248;149.138;2024-03-08T04:07:02;3.85;;;0.95;;
41532;SDS011;27262;-35.248;149.138;2024-03-08T04:09:34;4.05;;;1.17;;
41532;SDS011;27262;-35.248;149.138;2024-03-08T04:12:05;1.92;;;0.80;;
41532;SDS011;27262;-35.248;149.138;2024-03-08T04:14:36;2.83;;;0.80;;
41532;SDS011;27262;-35.248;149.138;2024-03-08T04:17:08;2.35;;;1.17;;
41532;SDS011;27262;-35.248;149.138;2024-03-08T04:19:39;3.85;;;1.02;;
41532;SDS011;27262;-35.248;149.138;2024-03-08T04:22:10;4.72;;;1.30;;
41532;SDS011;27262;-35.248;149.138;2024-03-08T04:24:40;4.88;;;1.25;;
41532;SDS011;27262;-35.248;149.138;2024-03-08T04:27:10;3.78;;;1.00;;
41532;SDS011;27262;-35.248;149.138;2024-03-08T04:29:41;2.83;;;1.13;;
41532;SDS011;27262;-35.248;149.138;2024-03-08T04:32:11;2.92;;;1.08;;
41532;SDS011;27262;-35.248;149.138;2024-03-08T04:34:42;5.28;;;1.40;;
41532;SDS011;27262;-35.248;149.138;2024-03-08T04:37:12;3.28;;;1.15;;
41532;SDS011;27262;-35.248;149.138;2024-03-08T04:39:43;3.55;;;1.05;;
41532;SDS011;27262;-35.248;149.138;2024-03-08T04:42:13;3.20;;;1.23;;
41532;SDS011;27262;-35.248;149.138;2024-03-08T04:44:46;6.15;;;1.00;;
41532;SDS011;27262;-35.248;149.138;2024-03-08T04:47:17;3.40;;;1.10;;
41532;SDS011;27262;-35.248;149.138;2024-03-08T04:49:48;3.65;;;1.23;;
41532;SDS011;27262;-35.248;149.138;2024-03-08T04:52:19;3.47;;;1.00;;
41532;SDS011;27262;-35.248;149.138;2024-03-08T04:54:50;3.95;;;1.15;;
41532;SDS011;27262;-35.248;149.138;2024-03-08T04:57:20;2.65;;;1.00;;
41532;SDS011;27262;-35.248;149.138;2024-03-08T04:59:51;1.85;;;0.75;;
41532;SDS011;27262;-35.248;149.138;2024-03-08T05:02:21;2.88;;;1.17;;
41532;SDS011;27262;-35.248;149.138;2024-03-08T05:04:51;2.95;;;1.00;;
41532;SDS011;27262;-35.248;149.138;2024-03-08T05:07:22;3.70;;;0.73;;
41532;SDS011;27262;-35.248;149.138;2024-03-08T05:09:52;2.78;;;1.05;;
41532;SDS011;27262;-35.248;149.138;2024-03-08T05:12:22;4.38;;;1.10;;
41532;SDS011;27262;-35.248;149.138;2024-03-08T05:14:53;2.35;;;0.80;;
41532;SDS011;27262;-35.248;149.138;2024-03-08T05:17:24;3.70;;;1.30;;
41532;SDS011;27262;-35.248;149.138;2024-03-08T05:19:54;3.25;;;1.15;;
41532;SDS011;27262;-35.248;149.138;2024-03-08T05:22:25;4.38;;;1.13;;
41532;SDS011;27262;-35.248;149.138;2024-03-08T05:24:56;3.00;;;0.88;;
41532;SDS011;27262;-35.248;149.138;2024-03-08T05:27:27;4.10;;;1.10;;
41532;SDS011;27262;-35.248;149.138;2024-03-08T05:29:57;4.22;;;1.13;;
41532;SDS011;27262;-35.248;149.138;2024-03-08T05:32:28;3.33;;;1.15;;
41532;SDS011;27262;-35.248;149.138;2024-03-08T05:34:59;2.25;;;0.90;;
41532;SDS011;27262;-35.248;149.138;2024-03-08T05:37:29;4.45;;;1.08;;
41532;SDS011;27262;-35.248;149.138;2024-03-08T05:40:00;2.72;;;1.00;;
41532;SDS011;27262;-35.248;149.138;2024-03-08T05:42:30;2.88;;;0.77;;
41532;SDS011;27262;-35.248;149.138;2024-03-08T05:45:00;5.78;;;0.95;;
41532;SDS011;27262;-35.248;149.138;2024-03-08T05:47:40;2.90;;;1.13;;
41532;SDS011;27262;-35.248;149.138;2024-03-08T05:50:11;2.80;;;1.10;;
41532;SDS011;27262;-35.248;149.138;2024-03-08T05:52:43;2.80;;;0.85;;
41532;SDS011;27262;-35.248;149.138;2024-03-08T05:55:13;6.07;;;1.15;;
41532;SDS011;27262;-35.248;149.138;2024-03-08T05:57:44;5.82;;;1.00;;
41532;SDS011;27262;-35.248;149.138;2024-03-08T06:00:14;4.15;;;1.02;;
41532;SDS011;27262;-35.248;149.138;2024-03-08T06:02:44;7.85;;;1.35;;
41532;SDS011;27262;-35.248;149.138;2024-03-08T06:05:15;5.80;;;1.17;;
41532;SDS011;27262;-35.248;149.138;2024-03-08T06:07:45;4.13;;;1.02;;
41532;SDS011;27262;-35.248;149.138;2024-03-08T06:10:15;4.88;;;1.40;;
41532;SDS011;27262;-35.248;149.138;2024-03-08T06:12:46;5.63;;;1.23;;
41532;SDS011;27262;-35.248;149.138;2024-03-08T06:15:16;3.83;;;1.10;;
41532;SDS011;27262;-35.248;149.138;2024-03-08T06:17:49;2.22;;;1.20;;
41532;SDS011;27262;-35.248;149.138;2024-03-08T06:20:21;7.18;;;1.05;;
41532;SDS011;27262;-35.248;149.138;2024-03-08T06:22:55;3.65;;;0.70;;
41532;SDS011;27262;-35.248;149.138;2024-03-08T06:25:25;3.50;;;0.88;;
41532;SDS011;27262;-35.248;149.138;2024-03-08T06:27:55;5.72;;;1.00;;
41532;SDS011;27262;-35.248;149.138;2024-03-08T06:30:26;2.10;;;0.95;;
41532;SDS011;27262;-35.248;149.138;2024-03-08T06:32:56;3.35;;;0.95;;
41532;SDS011;27262;-35.248;149.138;2024-03-08T06:35:27;3.88;;;0.90;;
41532;SDS011;27262;-35.248;149.138;2024-03-08T06:37:58;2.70;;;1.05;;
41532;SDS011;27262;-35.248;149.138;2024-03-08T06:40:28;3.13;;;1.00;;
41532;SDS011;27262;-35.248;149.138;2024-03-08T06:42:58;1.90;;;0.63;;
41532;SDS011;27262;-35.248;149.138;2024-03-08T06:45:29;1.67;;;1.10;;
41532;SDS011;27262;-35.248;149.138;2024-03-08T06:48:00;2.65;;;0.80;;
41532;SDS011;27262;-35.248;149.138;2024-03-08T06:50:31;8.18;;;1.17;;
41532;SDS011;27262;-35.248;149.138;2024-03-08T06:53:01;2.28;;;0.90;;
41532;SDS011;27262;-35.248;149.138;2024-03-08T06:55:31;2.55;;;0.82;;
41532;SDS011;27262;-35.248;149.138;2024-03-08T06:58:02;2.33;;;0.73;;
41532;SDS011;27262;-35.248;149.138;2024-03-08T07:00:33;2.97;;;1.00;;
41532;SDS011;27262;-35.248;149.138;2024-03-08T07:03:07;3.40;;;1.13;;
41532;SDS011;27262;-35.248;149.138;2024-03-08T07:05:40;4.30;;;0.90;;
41532;SDS011;27262;-35.248;149.138;2024-03-08T07:08:11;4.22;;;1.10;;
41532;SDS011;27262;-35.248;149.138;2024-03-08T07:10:51;4.20;;;1.15;;
41532;SDS011;27262;-35.248;149.138;2024-03-08T07:13:22;2.90;;;0.90;;
41532;SDS011;27262;-35.248;149.138;2024-03-08T07:15:53;2.20;;;0.82;;
41532;SDS011;27262;-35.248;149.138;2024-03-08T07:18:23;3.72;;;1.08;;
41532;SDS011;27262;-35.248;149.138;2024-03-08T07:20:54;3.17;;;0.98;;
41532;SDS011;27262;-35.248;149.138;2024-03-08T07:23:25;4.00;;;1.20;;
41532;SDS011;27262;-35.248;149.138;2024-03-08T07:26:19;2.10;;;0.82;;
41532;SDS011;27262;-35.248;149.138;2024-03-08T07:28:50;3.80;;;0.90;;
41532;SDS011;27262;-35.248;149.138;2024-03-08T07:31:20;2.72;;;0.73;;
41532;SDS011;27262;-35.248;149.138;2024-03-08T07:34:10;3.13;;;1.15;;
41532;SDS011;27262;-35.248;149.138;2024-03-08T07:36:41;2.08;;;0.82;;
41532;SDS011;27262;-35.248;149.138;2024-03-08T07:39:11;2.97;;;0.80;;
41532;SDS011;27262;-35.248;149.138;2024-03-08T07:41:42;2.38;;;0.85;;
41532;SDS011;27262;-35.248;149.138;2024-03-08T07:44:12;3.90;;;1.20;;
41532;SDS011;27262;-35.248;149.138;2024-03-08T07:46:43;2.30;;;1.08;;
41532;SDS011;27262;-35.248;149.138;2024-03-08T07:49:13;4.47;;;1.50;;
41532;SDS011;27262;-35.248;149.138;2024-03-08T07:51:43;10.60;;;1.58;;
41532;SDS011;27262;-35.248;149.138;2024-03-08T07:54:14;6.25;;;1.30;;
41532;SDS011;27262;-35.248;149.138;2024-03-08T07:56:44;4.20;;;1.52;;
41532;SDS011;27262;-35.248;149.138;2024-03-08T07:59:15;6.60;;;1.98;;
41532;SDS011;27262;-35.248;149.138;2024-03-08T08:01:45;5.65;;;1.88;;
41532;SDS011;27262;-35.248;149.138;2024-03-08T08:04:16;7.15;;;2.33;;
41532;SDS011;27262;-35.248;149.138;2024-03-08T08:06:47;6.43;;;2.03;;
41532;SDS011;27262;-35.248;149.138;2024-03-08T08:09:19;5.78;;;2.25;;
41532;SDS011;27262;-35.248;149.138;2024-03-08T08:11:56;6.30;;;2.25;;
41532;SDS011;27262;-35.248;149.138;2024-03-08T08:14:27;6.28;;;2.40;;
41532;SDS011;27262;-35.248;149.138;2024-03-08T08:16:57;7.78;;;2.42;;
41532;SDS011;27262;-35.248;149.138;2024-03-08T08:19:32;6.57;;;2.45;;
41532;SDS011;27262;-35.248;149.138;2024-03-08T08:22:03;6.53;;;2.22;;
41532;SDS011;27262;-35.248;149.138;2024-03-08T08:24:34;7.25;;;2.13;;
41532;SDS011;27262;-35.248;149.138;2024-03-08T08:27:05;8.55;;;2.45;;
41532;SDS011;27262;-35.248;149.138;2024-03-08T08:29:37;5.15;;;2.10;;
41532;SDS011;27262;-35.248;149.138;2024-03-08T08:32:07;6.28;;;2.13;;
41532;SDS011;27262;-35.248;149.138;2024-03-08T08:34:39;5.88;;;2.13;;
41532;SDS011;27262;-35.248;149.138;2024-03-08T08:37:11;4.18;;;1.85;;
41532;SDS011;27262;-35.248;149.138;2024-03-08T08:39:43;5.43;;;1.80;;
41532;SDS011;27262;-35.248;149.138;2024-03-08T08:42:14;4.47;;;1.98;;
41532;SDS011;27262;-35.248;149.138;2024-03-08T08:44:44;5.32;;;1.90;;
41532;SDS011;27262;-35.248;149.138;2024-03-08T08:47:15;4.03;;;2.05;;
41532;SDS011;27262;-35.248;149.138;2024-03-08T08:49:48;5.93;;;2.33;;
41532;SDS011;27262;-35.248;149.138;2024-03-08T08:52:19;5.32;;;1.80;;
41532;SDS011;27262;-35.248;149.138;2024-03-08T08:54:50;3.50;;;1.92;;
41532;SDS011;27262;-35.248;149.138;2024-03-08T08:57:20;4.28;;;1.77;;
41532;SDS011;27262;-35.248;149.138;2024-03-08T08:59:51;5.60;;;1.80;;
41532;SDS011;27262;-35.248;149.138;2024-03-08T09:02:21;4.85;;;2.15;;
41532;SDS011;27262;-35.248;149.138;2024-03-08T09:04:51;3.83;;;1.70;;
41532;SDS011;27262;-35.248;149.138;2024-03-08T09:07:22;5.70;;;1.83;;
41532;SDS011;27262;-35.248;149.138;2024-03-08T09:09:53;5.63;;;2.00;;
41532;SDS011;27262;-35.248;149.138;2024-03-08T09:12:42;5.30;;;2.03;;
41532;SDS011;27262;-35.248;149.138;2024-03-08T09:15:13;5.28;;;2.10;;
41532;SDS011;27262;-35.248;149.138;2024-03-08T09:17:46;4.35;;;2.03;;
41532;SDS011;27262;-35.248;149.138;2024-03-08T09:20:17;5.63;;;1.65;;
41532;SDS011;27262;-35.248;149.138;2024-03-08T09:22:47;3.33;;;1.95;;
41532;SDS011;27262;-35.248;149.138;2024-03-08T09:25:17;4.32;;;1.88;;
41532;SDS011;27262;-35.248;149.138;2024-03-08T09:27:48;6.70;;;2.00;;
41532;SDS011;27262;-35.248;149.138;2024-03-08T09:30:18;4.07;;;1.58;;
41532;SDS011;27262;-35.248;149.138;2024-03-08T09:32:49;5.20;;;2.15;;
41532;SDS011;27262;-35.248;149.138;2024-03-08T09:35:22;4.55;;;2.00;;
41532;SDS011;27262;-35.248;149.138;2024-03-08T09:37:53;3.80;;;1.70;;
41532;SDS011;27262;-35.248;149.138;2024-03-08T09:40:24;5.45;;;2.00;;
41532;SDS011;27262;-35.248;149.138;2024-03-08T09:42:55;3.25;;;1.70;;
41532;SDS011;27262;-35.248;149.138;2024-03-08T09:45:26;5.00;;;2.22;;
41532;SDS011;27262;-35.248;149.138;2024-03-08T09:47:57;4.22;;;1.98;;
41532;SDS011;27262;-35.248;149.138;2024-03-08T09:50:28;4.47;;;2.00;;
41532;SDS011;27262;-35.248;149.138;2024-03-08T09:52:58;5.32;;;2.30;;
41532;SDS011;27262;-35.248;149.138;2024-03-08T09:55:29;4.68;;;1.75;;
41532;SDS011;27262;-35.248;149.138;2024-03-08T09:58:05;4.43;;;2.22;;
41532;SDS011;27262;-35.248;149.138;2024-03-08T10:00:53;4.25;;;1.80;;
41532;SDS011;27262;-35.248;149.138;2024-03-08T10:03:27;4.70;;;2.13;;
41532;SDS011;27262;-35.248;149.138;2024-03-08T10:05:58;4.82;;;1.92;;
41532;SDS011;27262;-35.248;149.138;2024-03-08T10:08:31;4.55;;;1.90;;
41532;SDS011;27262;-35.248;149.138;2024-03-08T10:11:02;3.88;;;1.63;;
41532;SDS011;27262;-35.248;149.138;2024-03-08T10:13:33;3.90;;;1.80;;
41532;SDS011;27262;-35.248;149.138;2024-03-08T10:16:04;2.38;;;1.42;;
41532;SDS011;27262;-35.248;149.138;2024-03-08T10:18:34;2.45;;;1.30;;
41532;SDS011;27262;-35.248;149.138;2024-03-08T10:21:06;3.03;;;2.03;;
41532;SDS011;27262;-35.248;149.138;2024-03-08T10:23:41;3.17;;;1.40;;
41532;SDS011;27262;-35.248;149.138;2024-03-08T10:26:15;7.53;;;1.95;;
41532;SDS011;27262;-35.248;149.138;2024-03-08T10:28:48;3.88;;;1.40;;
41532;SDS011;27262;-35.248;149.138;2024-03-08T10:31:19;3.58;;;1.50;;
41532;SDS011;27262;-35.248;149.138;2024-03-08T10:33:50;2.83;;;1.60;;
41532;SDS011;27262;-35.248;149.138;2024-03-08T10:36:20;4.13;;;1.63;;
41532;SDS011;27262;-35.248;149.138;2024-03-08T10:38:51;4.93;;;1.80;;
41532;SDS011;27262;-35.248;149.138;2024-03-08T10:41:22;5.05;;;1.48;;
41532;SDS011;27262;-35.248;149.138;2024-03-08T10:47:05;4.25;;;1.63;;
41532;SDS011;27262;-35.248;149.138;2024-03-08T10:50:11;5.32;;;2.00;;
41532;SDS011;27262;-35.248;149.138;2024-03-08T10:52:50;5.35;;;2.03;;
41532;SDS011;27262;-35.248;149.138;2024-03-08T10:55:21;3.08;;;1.70;;
41532;SDS011;27262;-35.248;149.138;2024-03-08T10:57:55;3.67;;;1.63;;
41532;SDS011;27262;-35.248;149.138;2024-03-08T11:00:25;3.90;;;1.90;;
41532;SDS011;27262;-35.248;149.138;2024-03-08T11:02:56;4.25;;;2.20;;
41532;SDS011;27262;-35.248;149.138;2024-03-08T11:05:36;3.10;;;1.45;;
41532;SDS011;27262;-35.248;149.138;2024-03-08T11:08:19;4.53;;;1.55;;
41532;SDS011;27262;-35.248;149.138;2024-03-08T11:10:55;4.20;;;1.85;;
41532;SDS011;27262;-35.248;149.138;2024-03-08T11:13:35;3.97;;;1.92;;
41532;SDS011;27262;-35.248;149.138;2024-03-08T11:19:00;2.85;;;1.50;;
41532;SDS011;27262;-35.248;149.138;2024-03-08T11:21:39;5.50;;;1.60;;
41532;SDS011;27262;-35.248;149.138;2024-03-08T11:24:13;3.10;;;1.67;;
41532;SDS011;27262;-35.248;149.138;2024-03-08T11:26:45;3.00;;;1.98;;
41532;SDS011;27262;-35.248;149.138;2024-03-08T11:32:11;4.05;;;1.60;;
41532;SDS011;27262;-35.248;149.138;2024-03-08T11:34:42;3.60;;;1.77;;
41532;SDS011;27262;-35.248;149.138;2024-03-08T11:37:18;3.83;;;1.80;;
41532;SDS011;27262;-35.248;149.138;2024-03-08T11:39:50;3.70;;;1.77;;
41532;SDS011;27262;-35.248;149.138;2024-03-08T11:42:22;2.15;;;1.60;;
41532;SDS011;27262;-35.248;149.138;2024-03-08T11:44:52;3.78;;;1.50;;
41532;SDS011;27262;-35.248;149.138;2024-03-08T11:47:23;4.43;;;2.00;;
41532;SDS011;27262;-35.248;149.138;2024-03-08T11:49:54;3.33;;;1.63;;
41532;SDS011;27262;-35.248;149.138;2024-03-08T11:52:25;4.88;;;1.80;;
41532;SDS011;27262;-35.248;149.138;2024-03-08T11:54:55;2.60;;;1.65;;
41532;SDS011;27262;-35.248;149.138;2024-03-08T11:57:26;3.72;;;1.80;;
41532;SDS011;27262;-35.248;149.138;2024-03-08T11:59:57;4.32;;;2.10;;
41532;SDS011;27262;-35.248;149.138;2024-03-08T12:03:04;3.67;;;1.70;;
41532;SDS011;27262;-35.248;149.138;2024-03-08T12:05:35;3.75;;;2.00;;
41532;SDS011;27262;-35.248;149.138;2024-03-08T12:08:06;4.20;;;1.58;;
41532;SDS011;27262;-35.248;149.138;2024-03-08T12:10:41;4.63;;;1.85;;
41532;SDS011;27262;-35.248;149.138;2024-03-08T12:13:16;4.15;;;1.75;;
41532;SDS011;27262;-35.248;149.138;2024-03-08T12:15:47;4.15;;;1.88;;
41532;SDS011;27262;-35.248;149.138;2024-03-08T12:18:17;4.15;;;1.70;;
41532;SDS011;27262;-35.248;149.138;2024-03-08T12:20:48;4.82;;;1.77;;
41532;SDS011;27262;-35.248;149.138;2024-03-08T12:23:18;5.60;;;1.92;;
41532;SDS011;27262;-35.248;149.138;2024-03-08T12:25:49;5.15;;;1.83;;
41532;SDS011;27262;-35.248;149.138;2024-03-08T12:28:19;3.05;;;1.67;;
41532;SDS011;27262;-35.248;149.138;2024-03-08T12:30:50;3.90;;;2.10;;
41532;SDS011;27262;-35.248;149.138;2024-03-08T12:33:28;3.35;;;1.50;;
41532;SDS011;27262;-35.248;149.138;2024-03-08T12:35:59;2.85;;;1.70;;
41532;SDS011;27262;-35.248;149.138;2024-03-08T12:38:29;3.90;;;2.05;;
41532;SDS011;27262;-35.248;149.138;2024-03-08T12:41:00;5.60;;;2.08;;
41532;SDS011;27262;-35.248;149.138;2024-03-08T12:43:31;5.78;;;1.88;;
41532;SDS011;27262;-35.248;149.138;2024-03-08T12:46:02;4.47;;;2.05;;
41532;SDS011;27262;-35.248;149.138;2024-03-08T12:48:34;4.53;;;2.05;;
41532;SDS011;27262;-35.248;149.138;2024-03-08T12:51:08;2.83;;;1.80;;
41532;SDS011;27262;-35.248;149.138;2024-03-08T12:53:39;3.70;;;1.42;;
41532;SDS011;27262;-35.248;149.138;2024-03-08T12:56:13;3.00;;;1.73;;
41532;SDS011;27262;-35.248;149.138;2024-03-08T12:59:02;3.78;;;2.00;;
41532;SDS011;27262;-35.248;149.138;2024-03-08T13:01:37;2.92;;;1.60;;
41532;SDS011;27262;-35.248;149.138;2024-03-08T13:04:07;5.00;;;1.63;;
41532;SDS011;27262;-35.248;149.138;2024-03-08T13:06:39;4.45;;;2.03;;
41532;SDS011;27262;-35.248;149.138;2024-03-08T13:09:10;2.90;;;1.75;;
41532;SDS011;27262;-35.248;149.138;2024-03-08T13:11:40;3.95;;;2.03;;
41532;SDS011;27262;-35.248;149.138;2024-03-08T13:14:11;2.75;;;1.75;;
41532;SDS011;27262;-35.248;149.138;2024-03-08T13:16:42;5.18;;;2.15;;
41532;SDS011;27262;-35.248;149.138;2024-03-08T13:19:16;4.50;;;2.00;;
41532;SDS011;27262;-35.248;149.138;2024-03-08T13:21:50;3.75;;;1.98;;
41532;SDS011;27262;-35.248;149.138;2024-03-08T13:24:21;4.47;;;1.90;;
41532;SDS011;27262;-35.248;149.138;2024-03-08T13:26:53;5.75;;;2.05;;
41532;SDS011;27262;-35.248;149.138;2024-03-08T13:29:23;3.55;;;1.90;;
41532;SDS011;27262;-35.248;149.138;2024-03-08T13:31:53;3.38;;;1.88;;
41532;SDS011;27262;-35.248;149.138;2024-03-08T13:34:25;3.75;;;1.92;;
41532;SDS011;27262;-35.248;149.138;2024-03-08T13:36:58;2.22;;;1.70;;
41532;SDS011;27262;-35.248;149.138;2024-03-08T13:39:29;3.30;;;2.00;;
41532;SDS011;27262;-35.248;149.138;2024-03-08T13:42:14;3.80;;;2.25;;
41532;SDS011;27262;-35.248;149.138;2024-03-08T13:44:48;2.67;;;1.83;;
41532;SDS011;27262;-35.248;149.138;2024-03-08T13:47:19;2.63;;;1.67;;
41532;SDS011;27262;-35.248;149.138;2024-03-08T13:49:49;2.75;;;1.80;;
41532;SDS011;27262;-35.248;149.138;2024-03-08T13:52:20;2.97;;;2.08;;
41532;SDS011;27262;-35.248;149.138;2024-03-08T13:54:54;4.25;;;1.92;;
41532;SDS011;27262;-35.248;149.138;2024-03-08T13:57:27;2.95;;;1.85;;
41532;SDS011;27262;-35.248;149.138;2024-03-08T13:59:58;4.35;;;1.95;;
41532;SDS011;27262;-35.248;149.138;2024-03-08T14:02:29;3.08;;;1.80;;
41532;SDS011;27262;-35.248;149.138;2024-03-08T14:05:00;5.47;;;2.00;;
41532;SDS011;27262;-35.248;149.138;2024-03-08T14:07:31;3.33;;;2.30;;
41532;SDS011;27262;-35.248;149.138;2024-03-08T14:10:02;6.50;;;2.08;;
41532;SDS011;27262;-35.248;149.138;2024-03-08T14:12:35;2.80;;;1.83;;
41532;SDS011;27262;-35.248;149.138;2024-03-08T14:15:06;3.38;;;1.90;;
41532;SDS011;27262;-35.248;149.138;2024-03-08T14:17:38;4.28;;;2.10;;
41532;SDS011;27262;-35.248;149.138;2024-03-08T14:20:09;4.30;;;2.20;;
41532;SDS011;27262;-35.248;149.138;2024-03-08T14:22:41;3.35;;;2.03;;
41532;SDS011;27262;-35.248;149.138;2024-03-08T14:25:12;3.47;;;1.73;;
41532;SDS011;27262;-35.248;149.138;2024-03-08T14:27:45;4.35;;;1.98;;
41532;SDS011;27262;-35.248;149.138;2024-03-08T14:30:16;3.90;;;2.17;;
41532;SDS011;27262;-35.248;149.138;2024-03-08T14:33:06;3.72;;;2.25;;
41532;SDS011;27262;-35.248;149.138;2024-03-08T14:35:39;3.72;;;2.08;;
41532;SDS011;27262;-35.248;149.138;2024-03-08T14:38:11;2.90;;;1.90;;
41532;SDS011;27262;-35.248;149.138;2024-03-08T14:40:44;3.30;;;1.98;;
41532;SDS011;27262;-35.248;149.138;2024-03-08T14:43:15;4.18;;;2.08;;